Time;durP1;ratioP1;P1;durP2;ratioP2;P2;SDS_P1;SDS_P2;PMS_P1;PMS_P2;Temp;Humidity;BMP_temperature;BMP_pressure;BME280_temperature;BME280_humidity;BME280_pressure;Samples;Min_cycle;Max_cycle;Signal;HPM_P1;HPM_P2
2023/08/06 00:00:58;;;;;;;5.10;4.60;;;19.30;99.90;;;;;;5067498;28;20214;-73
2023/08/06 00:03:26;;;;;;;5.13;4.77;;;19.30;99.90;;;;;;5068258;28;20215;-76
2023/08/06 00:05:53;;;;;;;6.93;5.07;;;19.30;99.90;;;;;;5060903;28;20250;-76
2023/08/06 00:08:20;;;;;;;5.30;4.87;;;19.30;99.90;;;;;;5067799;28;20986;-76
2023/08/06 00:10:48;;;;;;;5.50;5.00;;;19.30;99.90;;;;;;5066853;28;20796;-74
2023/08/06 00:13:15;;;;;;;5.07;4.67;;;19.30;99.90;;;;;;5067140;28;20203;-75
2023/08/06 00:15:42;;;;;;;5.47;5.13;;;19.30;99.90;;;;;;5060845;28;20286;-75
2023/08/06 00:18:09;;;;;;;5.20;4.70;;;19.30;99.90;;;;;;5067244;28;20207;-75
2023/08/06 00:20:40;;;;;;;4.87;4.40;;;19.30;99.90;;;;;;5067334;28;20681;-75
2023/08/06 00:23:06;;;;;;;5.17;4.77;;;19.30;99.90;;;;;;5067140;28;20196;-75
2023/08/06 00:25:33;;;;;;;4.90;4.40;;;19.30;99.90;;;;;;5066860;28;20303;-75
2023/08/06 00:28:00;;;;;;;4.77;4.47;;;19.30;99.90;;;;;;5062089;28;20303;-75
2023/08/06 00:30:27;;;;;;;5.17;4.70;;;19.30;99.90;;;;;;5047180;28;20216;-75
2023/08/06 00:32:54;;;;;;;5.07;4.67;;;19.30;99.90;;;;;;5048897;28;20280;-75
2023/08/06 00:35:21;;;;;;;5.70;5.20;;;19.20;99.90;;;;;;5046822;28;20293;-75
2023/08/06 00:37:49;;;;;;;5.23;4.93;;;19.20;99.90;;;;;;5046561;28;20299;-75
2023/08/06 00:40:16;;;;;;;5.13;4.83;;;19.20;99.90;;;;;;5046916;28;20208;-75
2023/08/06 00:42:44;;;;;;;5.27;4.87;;;19.20;99.90;;;;;;5050106;28;20215;-74
2023/08/06 00:45:11;;;;;;;5.13;4.73;;;19.10;99.90;;;;;;5046875;28;20215;-74
2023/08/06 00:47:39;;;;;;;5.90;5.10;;;19.10;99.90;;;;;;5049841;28;20239;-73
2023/08/06 00:50:08;;;;;;;5.57;5.00;;;19.10;99.90;;;;;;5047220;28;20250;-73
2023/08/06 00:52:35;;;;;;;5.07;4.77;;;19.10;99.90;;;;;;5046920;28;20216;-73
2023/08/06 00:55:04;;;;;;;5.13;4.77;;;19.10;99.90;;;;;;5047130;28;20236;-73
2023/08/06 00:57:31;;;;;;;5.27;4.70;;;19.10;99.90;;;;;;5045992;28;20844;-75
2023/08/06 00:59:58;;;;;;;5.17;4.73;;;19.10;99.90;;;;;;5046840;28;20626;-76
2023/08/06 01:02:25;;;;;;;5.07;4.77;;;19.00;99.90;;;;;;5062528;28;20286;-75
2023/08/06 01:04:52;;;;;;;5.23;4.67;;;19.10;99.90;;;;;;5066815;28;20231;-76
2023/08/06 01:07:30;;;;;;;5.47;4.90;;;19.10;99.90;;;;;;5050513;28;20278;-76
2023/08/06 01:10:11;;;;;;;4.93;4.60;;;19.10;99.90;;;;;;5065735;28;20195;-75
2023/08/06 01:12:46;;;;;;;5.20;4.80;;;19.00;99.90;;;;;;5050822;28;20208;-76
2023/08/06 01:15:19;;;;;;;4.77;4.50;;;19.00;99.90;;;;;;5048757;28;20223;-76
2023/08/06 01:17:46;;;;;;;5.10;4.67;;;19.00;99.90;;;;;;5059158;28;20661;-75
2023/08/06 01:20:13;;;;;;;5.13;4.80;;;19.00;99.90;;;;;;5046277;28;20204;-75
2023/08/06 01:22:41;;;;;;;5.27;4.80;;;19.00;99.90;;;;;;5046299;28;20303;-74
2023/08/06 01:25:09;;;;;;;5.63;5.17;;;19.00;99.90;;;;;;5046366;28;20218;-74
2023/08/06 01:27:43;;;;;;;5.03;4.70;;;19.00;99.90;;;;;;5046173;28;20291;-73
2023/08/06 01:30:14;;;;;;;5.67;5.13;;;19.00;99.90;;;;;;5055599;28;20201;-73
2023/08/06 01:32:45;;;;;;;5.53;5.03;;;18.90;99.90;;;;;;5066137;28;20296;-73
2023/08/06 01:35:14;;;;;;;5.53;5.13;;;19.00;99.90;;;;;;5066025;28;20312;-72
2023/08/06 01:37:43;;;;;;;6.50;5.83;;;19.00;99.90;;;;;;5065810;28;20337;-73
2023/08/06 01:40:12;;;;;;;4.97;4.67;;;19.00;99.90;;;;;;5066012;28;20211;-72
2023/08/06 01:42:39;;;;;;;5.13;4.80;;;18.90;99.90;;;;;;5058493;28;20219;-72
2023/08/06 01:45:07;;;;;;;5.63;5.20;;;18.90;99.90;;;;;;5046128;28;20204;-72
2023/08/06 01:47:34;;;;;;;5.00;4.70;;;18.90;99.90;;;;;;5045531;28;20248;-72
2023/08/06 01:50:01;;;;;;;5.53;5.13;;;18.90;99.90;;;;;;5045961;28;20251;-71
2023/08/06 01:52:28;;;;;;;5.63;5.23;;;18.90;99.90;;;;;;5045786;28;20207;-71
2023/08/06 01:54:56;;;;;;;5.43;5.03;;;18.90;99.90;;;;;;5055804;28;20855;-71
2023/08/06 01:57:23;;;;;;;6.20;5.60;;;18.90;99.90;;;;;;5048954;28;20732;-73
2023/08/06 01:59:50;;;;;;;5.43;4.97;;;18.80;99.90;;;;;;5050065;28;20291;-73
2023/08/06 02:02:17;;;;;;;5.37;4.97;;;18.80;99.90;;;;;;5046137;28;20206;-73
2023/08/06 02:04:44;;;;;;;5.00;4.70;;;18.80;99.90;;;;;;5045860;28;20228;-73
2023/08/06 02:07:11;;;;;;;6.63;6.03;;;18.80;99.90;;;;;;5045186;28;20307;-73
2023/08/06 02:09:38;;;;;;;5.10;4.80;;;18.80;99.90;;;;;;5045262;28;20299;-73
2023/08/06 02:12:07;;;;;;;5.63;5.13;;;18.80;99.90;;;;;;5060141;28;20211;-73
2023/08/06 02:14:34;;;;;;;5.77;5.37;;;18.80;99.90;;;;;;5052612;28;20719;-73
2023/08/06 02:17:02;;;;;;;5.77;5.27;;;18.80;99.90;;;;;;5046268;28;20254;-73
2023/08/06 02:19:28;;;;;;;4.90;4.70;;;18.80;99.90;;;;;;5065730;28;20310;-73
2023/08/06 02:21:55;;;;;;;6.00;5.40;;;18.80;99.90;;;;;;5065356;28;20314;-73
2023/08/06 02:24:22;;;;;;;5.50;5.10;;;18.80;99.90;;;;;;5065237;28;20203;-73
2023/08/06 02:26:51;;;;;;;5.30;4.97;;;18.70;99.90;;;;;;5065131;28;20210;-73
2023/08/06 02:29:19;;;;;;;5.23;4.77;;;18.70;99.90;;;;;;5059079;28;20204;-73
2023/08/06 02:31:46;;;;;;;5.97;5.37;;;18.70;99.90;;;;;;5045206;28;20208;-74
2023/08/06 02:34:13;;;;;;;5.67;5.27;;;18.70;99.90;;;;;;5045370;28;20224;-73
2023/08/06 02:36:40;;;;;;;5.60;5.20;;;18.70;99.90;;;;;;5045190;28;20200;-73
2023/08/06 02:39:06;;;;;;;5.17;4.77;;;18.70;99.90;;;;;;5048305;28;20302;-73
2023/08/06 02:41:33;;;;;;;5.30;5.00;;;18.70;99.90;;;;;;5048814;28;20235;-72
2023/08/06 02:44:00;;;;;;;5.93;5.23;;;18.70;99.90;;;;;;5044724;28;20294;-72
2023/08/06 02:46:28;;;;;;;5.37;5.07;;;18.60;99.90;;;;;;5044882;28;20218;-72
2023/08/06 02:48:55;;;;;;;5.03;4.77;;;18.60;99.90;;;;;;5044612;28;20191;-72
2023/08/06 02:51:22;;;;;;;6.33;5.40;;;18.60;99.90;;;;;;5052608;28;20215;-72
2023/08/06 02:53:49;;;;;;;4.97;4.57;;;18.50;99.90;;;;;;5054229;28;20295;-73
2023/08/06 02:56:16;;;;;;;5.13;4.83;;;18.50;99.90;;;;;;5044818;28;20215;-73
2023/08/06 02:58:43;;;;;;;5.10;4.60;;;18.50;99.90;;;;;;5044786;28;20210;-74
2023/08/06 03:01:10;;;;;;;4.93;4.53;;;18.60;99.90;;;;;;5045071;28;20303;-74
2023/08/06 03:03:38;;;;;;;4.97;4.63;;;18.50;99.90;;;;;;5062832;28;20310;-73
2023/08/06 03:06:04;;;;;;;4.90;4.60;;;18.60;99.90;;;;;;5054407;28;20699;-73
2023/08/06 03:08:31;;;;;;;4.70;4.50;;;18.50;99.90;;;;;;5048631;28;20191;-73
2023/08/06 03:10:58;;;;;;;5.17;4.87;;;18.50;99.90;;;;;;5058984;28;20250;-71
2023/08/06 03:13:24;;;;;;;4.70;4.40;;;18.50;99.90;;;;;;5045853;28;20366;-71
2023/08/06 03:15:55;;;;;;;5.50;5.20;;;18.50;99.90;;;;;;5050804;28;20846;-71
2023/08/06 03:18:22;;;;;;;5.50;5.10;;;18.50;99.90;;;;;;5064800;28;20322;-71
2023/08/06 03:20:51;;;;;;;6.17;5.00;;;18.50;99.90;;;;;;5068126;28;20299;-73
2023/08/06 03:23:18;;;;;;;4.73;4.53;;;18.50;99.90;;;;;;5067750;28;20230;-72
2023/08/06 03:25:45;;;;;;;5.50;5.10;;;18.50;99.90;;;;;;5068506;28;20215;-72
2023/08/06 03:28:12;;;;;;;5.47;5.07;;;18.50;99.90;;;;;;5068242;28;20211;-72
2023/08/06 03:30:39;;;;;;;5.60;5.20;;;18.50;99.90;;;;;;5068154;28;20214;-73
2023/08/06 03:33:05;;;;;;;5.80;5.40;;;18.50;99.90;;;;;;5068193;28;20726;-72
2023/08/06 03:35:32;;;;;;;5.77;5.43;;;18.40;99.90;;;;;;5067442;28;20344;-72
2023/08/06 03:38:01;;;;;;;5.70;5.27;;;18.40;99.90;;;;;;5068063;28;20307;-72
2023/08/06 03:40:28;;;;;;;5.90;5.40;;;18.40;99.90;;;;;;5066944;28;20235;-73
2023/08/06 03:42:54;;;;;;;5.50;5.10;;;18.40;99.90;;;;;;5047942;28;20216;-71
2023/08/06 03:45:21;;;;;;;5.67;5.27;;;18.40;99.90;;;;;;5048257;28;20208;-73
2023/08/06 03:47:48;;;;;;;6.23;5.73;;;18.40;99.90;;;;;;5047898;28;20201;-73
2023/08/06 03:50:15;;;;;;;6.13;5.50;;;18.40;99.90;;;;;;5052036;28;20286;-73
2023/08/06 03:52:42;;;;;;;6.00;5.57;;;18.40;99.90;;;;;;5047198;28;20291;-73
2023/08/06 03:55:10;;;;;;;5.97;5.53;;;18.40;99.90;;;;;;5048064;28;20323;-72
2023/08/06 03:57:37;;;;;;;6.43;5.93;;;18.40;99.90;;;;;;5047604;28;20292;-72
2023/08/06 04:00:05;;;;;;;7.50;5.77;;;18.40;99.90;;;;;;5061483;28;20294;-72
2023/08/06 04:02:32;;;;;;;5.87;5.47;;;18.30;99.90;;;;;;5067654;28;20207;-72
2023/08/06 04:05:02;;;;;;;5.83;5.43;;;18.40;99.90;;;;;;5067304;28;20223;-72
2023/08/06 04:07:28;;;;;;;5.43;5.13;;;18.30;99.90;;;;;;5067610;28;20288;-72
2023/08/06 04:09:57;;;;;;;5.90;5.50;;;18.30;99.90;;;;;;5066603;28;20281;-72
2023/08/06 04:12:26;;;;;;;6.03;5.47;;;18.30;99.90;;;;;;5050144;28;20745;-72
2023/08/06 04:14:54;;;;;;;6.30;5.80;;;18.30;99.90;;;;;;5057297;28;20239;-72
2023/08/06 04:17:22;;;;;;;5.93;5.43;;;18.30;99.90;;;;;;5067598;28;20290;-74
2023/08/06 04:19:50;;;;;;;5.97;5.57;;;18.30;99.90;;;;;;5067808;28;20302;-72
2023/08/06 04:22:17;;;;;;;6.87;6.27;;;18.30;99.90;;;;;;5048077;28;20303;-72
2023/08/06 04:24:44;;;;;;;6.00;5.60;;;18.30;99.90;;;;;;5047592;28;20220;-72
2023/08/06 04:27:12;;;;;;;5.73;5.30;;;18.30;99.90;;;;;;5047350;28;20641;-72
2023/08/06 04:29:40;;;;;;;5.73;5.37;;;18.30;99.90;;;;;;5047241;28;20306;-72
2023/08/06 04:32:09;;;;;;;6.40;6.00;;;18.30;99.90;;;;;;5051226;28;20299;-72
2023/08/06 04:34:36;;;;;;;6.27;5.67;;;18.30;99.90;;;;;;5070589;28;20697;-72
2023/08/06 04:37:05;;;;;;;6.53;5.97;;;18.20;99.90;;;;;;5087017;28;20699;-71
2023/08/06 04:39:32;;;;;;;5.97;5.47;;;18.20;99.90;;;;;;5087095;28;20297;-71
2023/08/06 04:42:02;;;;;;;6.03;5.73;;;18.20;99.90;;;;;;5072709;28;20235;-72
2023/08/06 04:44:29;;;;;;;6.37;5.87;;;18.20;99.90;;;;;;5064925;28;20196;-71
2023/08/06 04:46:57;;;;;;;6.33;5.93;;;18.30;99.90;;;;;;5050648;28;20274;-72
2023/08/06 04:49:24;;;;;;;6.03;5.70;;;18.20;99.90;;;;;;5046836;28;20219;-71
2023/08/06 04:51:51;;;;;;;7.13;6.17;;;18.20;99.90;;;;;;5046521;28;20726;-72
2023/08/06 04:54:17;;;;;;;6.27;5.87;;;18.20;99.90;;;;;;5046889;28;20219;-73
2023/08/06 04:56:44;;;;;;;6.60;6.10;;;18.20;99.90;;;;;;5050634;28;20326;-72
2023/08/06 04:59:11;;;;;;;5.57;5.23;;;18.20;99.90;;;;;;5065652;28;20719;-72
2023/08/06 05:01:38;;;;;;;6.20;5.70;;;18.20;99.90;;;;;;5066209;28;20729;-72
2023/08/06 05:04:06;;;;;;;6.43;5.83;;;18.20;99.90;;;;;;5066094;28;20245;-72
2023/08/06 05:06:33;;;;;;;5.97;5.57;;;18.20;99.90;;;;;;5049600;28;20291;-72
2023/08/06 05:09:00;;;;;;;6.03;5.60;;;18.20;99.90;;;;;;5046453;28;20297;-71
2023/08/06 05:11:27;;;;;;;5.90;5.50;;;18.20;99.90;;;;;;5055396;28;20736;-71
2023/08/06 05:13:54;;;;;;;6.03;5.57;;;18.20;99.90;;;;;;5065535;28;20997;-72
2023/08/06 05:16:23;;;;;;;5.93;5.43;;;18.20;99.90;;;;;;5066094;28;20327;-72
2023/08/06 05:18:50;;;;;;;5.97;5.57;;;18.20;99.90;;;;;;5065957;28;20207;-72
2023/08/06 05:21:18;;;;;;;5.63;5.23;;;18.20;99.90;;;;;;5055091;28;20232;-72
2023/08/06 05:23:45;;;;;;;5.43;5.03;;;18.20;99.90;;;;;;5058848;28;20212;-72
2023/08/06 05:26:14;;;;;;;4.93;4.63;;;18.20;99.90;;;;;;5065990;28;20736;-72
2023/08/06 05:28:41;;;;;;;5.33;4.93;;;18.20;99.90;;;;;;5050680;28;20220;-72
2023/08/06 05:31:08;;;;;;;4.93;4.40;;;18.20;99.90;;;;;;5046038;28;20556;-72
2023/08/06 05:33:35;;;;;;;4.73;4.43;;;18.20;99.90;;;;;;5047337;28;20306;-72
2023/08/06 05:36:02;;;;;;;5.60;4.80;;;18.20;99.90;;;;;;5061293;28;20776;-72
2023/08/06 05:38:31;;;;;;;5.00;4.70;;;18.20;99.90;;;;;;5065099;28;20213;-72
2023/08/06 05:40:58;;;;;;;5.33;4.97;;;18.20;99.90;;;;;;5060126;28;20224;-72
2023/08/06 05:43:24;;;;;;;4.77;4.47;;;18.20;99.90;;;;;;5044985;28;20582;-72
2023/08/06 05:45:51;;;;;;;4.87;4.57;;;18.20;99.90;;;;;;5045265;28;20662;-73
2023/08/06 05:48:18;;;;;;;4.80;4.40;;;18.20;99.90;;;;;;5062849;28;20207;-72
2023/08/06 05:50:45;;;;;;;4.97;4.57;;;18.30;99.90;;;;;;5065641;28;20634;-73
2023/08/06 05:53:12;;;;;;;5.23;4.83;;;18.20;99.90;;;;;;5065891;28;20230;-73
2023/08/06 05:55:41;;;;;;;4.70;4.33;;;18.20;99.90;;;;;;5065169;28;20868;-73
2023/08/06 05:58:08;;;;;;;4.60;4.20;;;18.20;99.90;;;;;;5065606;28;20588;-72
2023/08/06 06:00:35;;;;;;;4.53;4.33;;;18.20;99.90;;;;;;5063451;28;20235;-73
2023/08/06 06:03:02;;;;;;;4.23;3.83;;;18.10;99.90;;;;;;5065803;28;20310;-73
2023/08/06 06:05:29;;;;;;;4.30;4.00;;;18.20;99.90;;;;;;5085572;28;20214;-73
2023/08/06 06:07:56;;;;;;;3.90;3.70;;;18.10;99.90;;;;;;5085716;28;20541;-73
2023/08/06 06:10:23;;;;;;;4.30;3.90;;;18.20;99.90;;;;;;5055776;28;20323;-73
2023/08/06 06:12:51;;;;;;;4.70;4.30;;;18.20;99.90;;;;;;5064749;28;20244;-73
2023/08/06 06:15:18;;;;;;;4.30;3.93;;;18.20;99.90;;;;;;5064923;28;20227;-73
2023/08/06 06:17:45;;;;;;;3.90;3.60;;;18.20;99.90;;;;;;5064850;28;20653;-73
2023/08/06 06:20:12;;;;;;;4.10;3.83;;;18.20;99.90;;;;;;5064742;28;20728;-73
2023/08/06 06:22:39;;;;;;;4.20;3.90;;;18.30;99.90;;;;;;5064411;28;20291;-73
2023/08/06 06:25:07;;;;;;;4.13;3.83;;;18.20;99.90;;;;;;5061724;28;20211;-73
2023/08/06 06:27:34;;;;;;;4.20;3.90;;;18.20;99.90;;;;;;5064918;28;20211;-73
2023/08/06 06:30:03;;;;;;;4.00;3.80;;;18.30;99.90;;;;;;5064946;28;20301;-73
2023/08/06 06:32:30;;;;;;;4.00;3.70;;;18.30;99.90;;;;;;5047127;28;20212;-73
2023/08/06 06:34:58;;;;;;;3.80;3.60;;;18.30;99.90;;;;;;5045304;28;20622;-73
2023/08/06 06:37:25;;;;;;;3.80;3.50;;;18.30;99.90;;;;;;5044262;28;20211;-73
2023/08/06 06:39:52;;;;;;;4.30;3.93;;;18.30;99.90;;;;;;5048748;28;20204;-74
2023/08/06 06:42:18;;;;;;;4.23;3.83;;;18.30;99.90;;;;;;5061635;28;20298;-74
2023/08/06 06:44:46;;;;;;;4.07;3.60;;;18.40;99.90;;;;;;5064843;28;20660;-74
2023/08/06 06:47:14;;;;;;;4.43;4.13;;;18.40;99.90;;;;;;5045983;28;20293;-74
2023/08/06 06:49:41;;;;;;;3.93;3.63;;;18.40;99.90;;;;;;5045127;28;20291;-74
2023/08/06 06:52:08;;;;;;;3.60;3.47;;;18.40;99.90;;;;;;5044955;28;20662;-74
2023/08/06 06:54:35;;;;;;;4.43;4.07;;;18.50;99.90;;;;;;5046286;28;20294;-74
2023/08/06 06:57:02;;;;;;;4.00;3.73;;;18.50;99.90;;;;;;5049541;28;20328;-74
2023/08/06 06:59:29;;;;;;;4.00;3.77;;;18.50;99.90;;;;;;5068908;28;20290;-76
2023/08/06 07:01:56;;;;;;;4.20;3.90;;;18.50;99.90;;;;;;5068900;28;20234;-75
2023/08/06 07:04:24;;;;;;;4.10;3.87;;;18.50;99.90;;;;;;5068924;28;20314;-74
2023/08/06 07:06:51;;;;;;;4.53;4.20;;;18.50;99.90;;;;;;5068813;28;20302;-74
2023/08/06 07:09:18;;;;;;;3.80;3.50;;;18.50;99.90;;;;;;5064261;28;20226;-74
2023/08/06 07:11:45;;;;;;;4.70;4.40;;;18.50;99.90;;;;;;5059976;28;20245;-74
2023/08/06 07:14:14;;;;;;;4.43;4.20;;;18.50;99.90;;;;;;5068662;28;20235;-75
2023/08/06 07:16:41;;;;;;;4.17;3.97;;;18.60;99.90;;;;;;5054726;28;20571;-75
2023/08/06 07:19:08;;;;;;;4.63;4.33;;;18.60;99.90;;;;;;5063509;28;20196;-75
2023/08/06 07:21:36;;;;;;;5.10;4.63;;;18.50;99.90;;;;;;5064670;28;20330;-74
2023/08/06 07:24:03;;;;;;;4.53;4.23;;;18.60;99.90;;;;;;5067730;28;20688;-74
2023/08/06 07:26:33;;;;;;;4.07;3.87;;;18.60;99.90;;;;;;5068778;28;20294;-76
2023/08/06 07:29:02;;;;;;;4.50;4.20;;;18.60;99.90;;;;;;5088269;28;20207;-76
2023/08/06 07:31:29;;;;;;;4.50;4.20;;;18.60;99.90;;;;;;5088892;28;20210;-72
2023/08/06 07:33:56;;;;;;;4.40;4.10;;;18.60;99.90;;;;;;5079450;28;20206;-73
2023/08/06 07:36:23;;;;;;;4.23;3.93;;;18.50;99.90;;;;;;5057292;28;20231;-73
2023/08/06 07:38:55;;;;;;;4.80;4.40;;;18.70;99.90;;;;;;5048213;28;20235;-73
2023/08/06 07:41:22;;;;;;;4.67;4.27;;;18.70;99.90;;;;;;5057424;28;20298;-72
2023/08/06 07:43:49;;;;;;;4.67;4.40;;;18.80;99.90;;;;;;5068073;28;20235;-73
2023/08/06 07:46:16;;;;;;;4.40;4.10;;;18.80;99.90;;;;;;5067287;28;20258;-73
2023/08/06 07:48:43;;;;;;;4.80;4.40;;;18.80;99.90;;;;;;5067638;28;20289;-72
2023/08/06 07:51:10;;;;;;;4.83;4.53;;;18.80;99.90;;;;;;5067956;28;20266;-73
2023/08/06 07:53:37;;;;;;;4.73;4.33;;;18.80;99.90;;;;;;5067391;28;20564;-73
2023/08/06 07:56:05;;;;;;;5.23;4.60;;;18.70;99.90;;;;;;5060129;28;20764;-73
2023/08/06 07:58:32;;;;;;;4.60;4.40;;;18.70;99.90;;;;;;5064919;28;20753;-75
2023/08/06 08:00:59;;;;;;;4.70;4.40;;;18.70;99.90;;;;;;5067702;28;20207;-75
2023/08/06 08:03:26;;;;;;;4.70;4.40;;;18.80;99.90;;;;;;5059027;28;20228;-75
2023/08/06 08:05:58;;;;;;;4.80;4.50;;;18.80;99.90;;;;;;5045536;28;20532;-75
2023/08/06 08:08:25;;;;;;;4.50;4.30;;;18.80;99.90;;;;;;5057900;28;20202;-75
2023/08/06 08:10:52;;;;;;;4.60;4.27;;;18.90;99.90;;;;;;5061166;28;20240;-75
2023/08/06 08:13:20;;;;;;;4.80;4.40;;;18.90;99.90;;;;;;5046139;28;20291;-75
2023/08/06 08:15:47;;;;;;;4.70;4.30;;;18.90;99.90;;;;;;5050998;28;20682;-75
2023/08/06 08:18:14;;;;;;;4.77;4.47;;;18.90;99.90;;;;;;5065921;28;20207;-75
2023/08/06 08:20:41;;;;;;;5.10;4.70;;;18.90;99.90;;;;;;5053939;28;20204;-75
2023/08/06 08:23:08;;;;;;;4.70;4.30;;;19.00;99.90;;;;;;5046497;28;20829;-75
2023/08/06 08:25:35;;;;;;;4.60;4.30;;;19.00;99.90;;;;;;5045768;28;20210;-75
2023/08/06 08:28:01;;;;;;;5.07;4.60;;;19.00;99.90;;;;;;5046399;28;20289;-74
2023/08/06 08:30:30;;;;;;;5.37;4.90;;;18.90;99.90;;;;;;5045985;28;20290;-73
2023/08/06 08:32:56;;;;;;;4.77;4.50;;;19.00;99.90;;;;;;5049154;28;20205;-74
2023/08/06 08:35:23;;;;;;;5.17;4.87;;;19.00;99.90;;;;;;5045770;28;20204;-75
2023/08/06 08:37:51;;;;;;;4.50;4.30;;;19.00;99.90;;;;;;5045049;28;20249;-74
2023/08/06 08:40:18;;;;;;;5.43;5.13;;;19.10;99.90;;;;;;5046362;28;20207;-75
2023/08/06 08:42:45;;;;;;;5.30;4.80;;;19.10;99.90;;;;;;5045156;28;20219;-74
2023/08/06 08:45:14;;;;;;;5.30;4.77;;;19.10;99.90;;;;;;5045146;28;21023;-74
2023/08/06 08:47:43;;;;;;;5.37;5.07;;;19.20;99.90;;;;;;5044936;28;20298;-74
2023/08/06 08:50:13;;;;;;;5.07;4.77;;;19.20;99.90;;;;;;5045419;28;20227;-74
2023/08/06 08:52:41;;;;;;;5.30;4.90;;;19.20;99.90;;;;;;5056825;28;20204;-74
2023/08/06 08:55:09;;;;;;;5.33;5.03;;;19.10;99.90;;;;;;5049822;28;20199;-74
2023/08/06 08:57:36;;;;;;;5.60;5.17;;;19.10;99.90;;;;;;5045461;28;20267;-74
2023/08/06 09:00:04;;;;;;;5.43;5.07;;;19.10;99.90;;;;;;5054639;28;20286;-74
2023/08/06 09:02:33;;;;;;;5.80;5.50;;;19.00;99.90;;;;;;5050119;28;20664;-74
2023/08/06 09:05:04;;;;;;;6.00;5.67;;;19.00;99.90;;;;;;5059358;28;20294;-75
2023/08/06 09:07:35;;;;;;;5.93;5.53;;;19.00;99.90;;;;;;5065125;28;20247;-74
2023/08/06 09:10:04;;;;;;;6.37;5.87;;;19.00;99.90;;;;;;5064810;28;20240;-74
2023/08/06 09:12:32;;;;;;;6.37;5.77;;;19.00;99.90;;;;;;5050356;28;20219;-74
2023/08/06 09:14:59;;;;;;;6.13;5.73;;;19.00;99.90;;;;;;5044976;28;20333;-74
2023/08/06 09:17:28;;;;;;;6.20;5.80;;;18.90;99.90;;;;;;5049967;28;20622;-74
2023/08/06 09:19:55;;;;;;;6.43;6.03;;;18.90;99.90;;;;;;5064879;28;20199;-74
2023/08/06 09:22:23;;;;;;;7.13;6.63;;;18.90;99.90;;;;;;5064957;28;20207;-74
2023/08/06 09:24:50;;;;;;;7.20;6.60;;;18.80;99.90;;;;;;5064915;28;20207;-75
2023/08/06 09:27:18;;;;;;;7.50;6.90;;;18.60;99.90;;;;;;5064272;28;20297;-74
2023/08/06 09:29:46;;;;;;;6.40;6.00;;;18.60;99.90;;;;;;5045850;28;20310;-74
2023/08/06 09:32:14;;;;;;;6.10;5.70;;;18.60;99.90;;;;;;5044536;28;20303;-74
2023/08/06 09:34:42;;;;;;;6.70;6.10;;;18.60;99.90;;;;;;5044724;28;20207;-75
2023/08/06 09:37:11;;;;;;;6.47;6.00;;;18.60;99.90;;;;;;5044197;28;20242;-74
2023/08/06 09:39:41;;;;;;;5.90;5.50;;;18.70;99.90;;;;;;5044323;28;20208;-74
2023/08/06 09:42:08;;;;;;;5.83;5.53;;;18.80;99.90;;;;;;5059010;28;20211;-74
2023/08/06 09:44:35;;;;;;;6.20;5.80;;;18.80;99.90;;;;;;5063980;28;20213;-74
2023/08/06 09:47:04;;;;;;;6.03;5.63;;;18.80;99.90;;;;;;5064073;28;20207;-74
2023/08/06 09:49:43;;;;;;;6.17;5.67;;;18.70;99.90;;;;;;5064394;28;20211;-74
2023/08/06 09:52:12;;;;;;;5.90;5.53;;;18.70;99.90;;;;;;5044199;28;20210;-74
2023/08/06 09:54:40;;;;;;;6.30;5.73;;;18.80;99.90;;;;;;5043823;28;20207;-74
2023/08/06 09:57:08;;;;;;;5.57;5.17;;;18.80;99.90;;;;;;5043476;28;20311;-74
2023/08/06 09:59:36;;;;;;;6.20;5.70;;;18.70;99.90;;;;;;5044148;28;20291;-75
2023/08/06 10:02:08;;;;;;;6.30;5.90;;;18.80;99.90;;;;;;5045896;28;20291;-76
2023/08/06 10:04:36;;;;;;;6.33;5.83;;;18.80;99.90;;;;;;5044162;28;20189;-76
2023/08/06 10:07:03;;;;;;;6.63;6.23;;;18.80;99.90;;;;;;5043779;28;20286;-76
2023/08/06 10:09:30;;;;;;;6.70;6.20;;;18.80;99.90;;;;;;5047220;28;20220;-75
2023/08/06 10:12:00;;;;;;;7.23;6.77;;;18.90;99.90;;;;;;5057000;28;20245;-75
2023/08/06 10:14:30;;;;;;;6.80;6.30;;;18.90;99.90;;;;;;5056963;28;20188;-75
2023/08/06 10:16:59;;;;;;;7.00;6.50;;;18.90;99.90;;;;;;5043145;28;20267;-75
2023/08/06 10:19:27;;;;;;;7.30;6.70;;;18.90;99.90;;;;;;5043828;28;20204;-75
2023/08/06 10:22:11;;;;;;;7.40;6.70;;;18.80;99.90;;;;;;5043639;28;20323;-75
2023/08/06 10:24:51;;;;;;;7.60;7.10;;;18.70;99.90;;;;;;5043017;28;20203;-75
2023/08/06 10:27:31;;;;;;;7.10;6.60;;;18.70;99.90;;;;;;5049396;28;20283;-75
2023/08/06 10:30:23;;;;;;;7.63;6.93;;;18.70;99.90;;;;;;5045218;28;20640;-75
2023/08/06 10:32:50;;;;;;;7.27;6.67;;;18.70;99.90;;;;;;5045378;28;20677;-75
2023/08/06 10:35:33;;;;;;;7.10;6.60;;;18.70;99.90;;;;;;5045052;28;20204;-76
2023/08/06 10:38:03;;;;;;;6.67;6.30;;;18.80;99.90;;;;;;5053312;28;20346;-75
2023/08/06 10:40:30;;;;;;;6.63;6.13;;;18.80;99.90;;;;;;5054114;28;20208;-75
2023/08/06 10:43:00;;;;;;;7.40;6.80;;;18.80;99.90;;;;;;5049452;28;20274;-75
2023/08/06 10:45:28;;;;;;;6.90;6.50;;;18.80;99.90;;;;;;5045003;28;20234;-75
2023/08/06 10:47:56;;;;;;;7.40;6.90;;;18.80;99.90;;;;;;5051921;28;20219;-75
2023/08/06 10:50:23;;;;;;;7.17;6.67;;;19.00;99.90;;;;;;5064751;28;20294;-75
2023/08/06 10:52:51;;;;;;;6.93;6.43;;;19.10;99.90;;;;;;5049998;28;20211;-75
2023/08/06 10:55:24;;;;;;;7.27;6.77;;;19.10;99.90;;;;;;5061410;28;20294;-75
2023/08/06 10:57:51;;;;;;;6.60;6.10;;;19.10;99.90;;;;;;5044523;28;20717;-75
2023/08/06 11:00:22;;;;;;;7.20;6.70;;;19.00;99.90;;;;;;5054651;28;20695;-75
2023/08/06 11:02:50;;;;;;;7.47;6.90;;;18.90;99.90;;;;;;5049646;28;20684;-75
2023/08/06 11:05:17;;;;;;;7.13;6.57;;;18.90;99.90;;;;;;5062867;28;20298;-75
2023/08/06 11:07:45;;;;;;;7.10;6.60;;;18.90;99.90;;;;;;5053907;28;20226;-74
2023/08/06 11:10:13;;;;;;;7.33;6.80;;;18.90;99.90;;;;;;5054051;28;20625;-75
2023/08/06 11:12:41;;;;;;;7.80;7.30;;;18.90;99.90;;;;;;5052037;28;20212;-75
2023/08/06 11:15:09;;;;;;;7.30;6.80;;;18.80;99.90;;;;;;5050641;28;20663;-76
2023/08/06 11:17:40;;;;;;;7.80;7.30;;;18.80;99.90;;;;;;5053596;28;20231;-76
2023/08/06 11:20:08;;;;;;;7.57;7.07;;;18.80;99.90;;;;;;5051716;28;20203;-76
2023/08/06 11:22:39;;;;;;;7.83;7.23;;;18.70;99.90;;;;;;5061181;28;20631;-76
2023/08/06 11:25:08;;;;;;;8.30;7.70;;;18.80;99.90;;;;;;5052657;28;20246;-76
2023/08/06 11:27:35;;;;;;;7.43;6.93;;;18.80;99.90;;;;;;5059739;28;20749;-76
2023/08/06 11:30:02;;;;;;;8.07;7.57;;;18.80;99.90;;;;;;5051126;28;20296;-76
2023/08/06 11:32:29;;;;;;;7.33;6.80;;;18.70;99.90;;;;;;5048651;28;20228;-75
2023/08/06 11:34:58;;;;;;;7.50;6.90;;;18.70;99.90;;;;;;5046445;28;20200;-76
2023/08/06 11:37:26;;;;;;;8.03;7.53;;;18.70;99.90;;;;;;5047312;28;20858;-76
2023/08/06 11:39:53;;;;;;;8.23;7.53;;;18.50;99.90;;;;;;5062298;28;20203;-76
2023/08/06 11:42:21;;;;;;;8.57;7.87;;;18.50;99.90;;;;;;5053378;28;20208;-76
2023/08/06 11:44:48;;;;;;;8.77;8.17;;;18.50;99.90;;;;;;5054331;28;20745;-76
2023/08/06 11:47:17;;;;;;;8.77;8.00;;;18.50;99.90;;;;;;5052652;28;20799;-76
2023/08/06 11:49:46;;;;;;;9.33;8.60;;;18.60;99.90;;;;;;5062345;28;20760;-76
2023/08/06 11:52:20;;;;;;;8.93;8.20;;;18.50;99.90;;;;;;5056813;28;20208;-76
2023/08/06 11:55:03;;;;;;;9.17;8.30;;;18.60;99.90;;;;;;5061727;28;20206;-76
2023/08/06 11:57:35;;;;;;;8.97;8.27;;;18.70;99.90;;;;;;5052756;28;20220;-76
2023/08/06 12:00:06;;;;;;;10.33;9.53;;;18.80;99.90;;;;;;5056929;28;20188;-76
2023/08/06 12:02:37;;;;;;;12.20;11.00;;;18.90;99.90;;;;;;5060884;28;20659;-75
2023/08/06 12:05:06;;;;;;;8.27;7.57;;;19.00;99.90;;;;;;5055902;28;20723;-74
2023/08/06 12:07:39;;;;;;;8.13;7.53;;;19.10;99.90;;;;;;5054425;28;20577;-75
2023/08/06 12:10:07;;;;;;;8.70;8.20;;;19.20;99.90;;;;;;5050710;28;20705;-75
2023/08/06 12:12:35;;;;;;;8.23;7.57;;;19.20;99.90;;;;;;5063268;28;20199;-75
2023/08/06 12:15:02;;;;;;;7.57;7.17;;;19.00;99.90;;;;;;5056538;28;20204;-75
2023/08/06 12:17:29;;;;;;;7.60;7.00;;;19.10;99.90;;;;;;5060584;28;20263;-75
2023/08/06 12:19:56;;;;;;;8.10;7.50;;;19.10;99.90;;;;;;5057470;28;20875;-76
2023/08/06 12:22:23;;;;;;;8.40;7.70;;;19.10;99.90;;;;;;5057551;28;20235;-75
2023/08/06 12:24:52;;;;;;;8.93;8.03;;;19.30;99.90;;;;;;5051202;28;20612;-75
2023/08/06 12:27:19;;;;;;;8.47;7.83;;;19.40;99.90;;;;;;5055745;28;20668;-74
2023/08/06 12:29:48;;;;;;;8.83;8.03;;;19.40;99.90;;;;;;5052453;28;20196;-75
2023/08/06 12:32:16;;;;;;;9.50;8.50;;;19.50;99.90;;;;;;5052596;28;20211;-75
2023/08/06 12:34:44;;;;;;;7.70;7.10;;;19.50;99.90;;;;;;5055240;28;20318;-75
2023/08/06 12:37:11;;;;;;;6.47;5.63;;;19.40;99.90;;;;;;5055704;28;20621;-76
2023/08/06 12:39:39;;;;;;;5.60;4.70;;;19.40;99.90;;;;;;5058832;28;20214;-75
2023/08/06 12:42:08;;;;;;;5.40;4.90;;;19.40;99.90;;;;;;5055366;28;20255;-76
2023/08/06 12:44:35;;;;;;;5.30;4.83;;;19.30;99.90;;;;;;5059152;28;20654;-76
2023/08/06 12:47:03;;;;;;;5.70;5.20;;;19.10;99.90;;;;;;5060076;28;20243;-76
2023/08/06 12:49:31;;;;;;;7.00;5.50;;;19.10;99.90;;;;;;5053003;28;20204;-75